sensor_id;sensor_type;location;lat;lon;timestamp;temperature;humidity
10986;DHT22;5546;48.714;8.738;2023-12-20T00:02:18;9.00;99.90
10986;DHT22;5546;48.714;8.738;2023-12-20T00:04:43;9.10;99.90
10986;DHT22;5546;48.714;8.738;2023-12-20T00:07:09;9.20;99.90
10986;DHT22;5546;48.714;8.738;2023-12-20T00:09:35;9.10;99.90
10986;DHT22;5546;48.714;8.738;2023-12-20T00:12:00;9.20;99.90
10986;DHT22;5546;48.714;8.738;2023-12-20T00:14:25;9.60;99.90
10986;DHT22;5546;48.714;8.738;2023-12-20T00:16:52;9.70;99.90
10986;DHT22;5546;48.714;8.738;2023-12-20T00:26:35;9.70;99.90
10986;DHT22;5546;48.714;8.738;2023-12-20T00:31:26;9.40;99.90
10986;DHT22;5546;48.714;8.738;2023-12-20T00:33:52;9.40;99.90
10986;DHT22;5546;48.714;8.738;2023-12-20T00:36:17;9.40;99.90
10986;DHT22;5546;48.714;8.738;2023-12-20T00:38:43;9.70;99.90
10986;DHT22;5546;48.714;8.738;2023-12-20T00:41:08;9.70;99.90
10986;DHT22;5546;48.714;8.738;2023-12-20T00:43:34;9.80;99.90
10986;DHT22;5546;48.714;8.738;2023-12-20T00:45:59;9.30;99.90
10986;DHT22;5546;48.714;8.738;2023-12-20T00:48:26;9.20;99.90
10986;DHT22;5546;48.714;8.738;2023-12-20T00:50:57;9.20;99.90
10986;DHT22;5546;48.714;8.738;2023-12-20T00:53:22;8.60;99.90
10986;DHT22;5546;48.714;8.738;2023-12-20T00:55:48;8.60;99.90
10986;DHT22;5546;48.714;8.738;2023-12-20T00:58:14;8.60;99.90
10986;DHT22;5546;48.714;8.738;2023-12-20T01:00:40;9.00;99.90
10986;DHT22;5546;48.714;8.738;2023-12-20T01:07:59;8.10;99.90
10986;DHT22;5546;48.714;8.738;2023-12-20T01:10:25;8.00;99.90
10986;DHT22;5546;48.714;8.738;2023-12-20T01:12:53;7.80;99.90
10986;DHT22;5546;48.714;8.738;2023-12-20T01:15:19;7.50;99.90
10986;DHT22;5546;48.714;8.738;2023-12-20T01:17:44;7.50;99.90
10986;DHT22;5546;48.714;8.738;2023-12-20T01:20:10;8.00;99.90
10986;DHT22;5546;48.714;8.738;2023-12-20T01:22:36;8.20;99.90
10986;DHT22;5546;48.714;8.738;2023-12-20T01:25:02;8.40;99.90
10986;DHT22;5546;48.714;8.738;2023-12-20T01:27:28;8.40;99.90
10986;DHT22;5546;48.714;8.738;2023-12-20T01:29:53;8.40;99.90
10986;DHT22;5546;48.714;8.738;2023-12-20T01:32:19;8.70;99.90
10986;DHT22;5546;48.714;8.738;2023-12-20T01:34:45;9.10;99.90
10986;DHT22;5546;48.714;8.738;2023-12-20T01:37:10;9.30;99.90
10986;DHT22;5546;48.714;8.738;2023-12-20T01:39:36;9.20;99.90
10986;DHT22;5546;48.714;8.738;2023-12-20T01:42:01;8.70;99.90
10986;DHT22;5546;48.714;8.738;2023-12-20T01:44:27;8.70;99.90
10986;DHT22;5546;48.714;8.738;2023-12-20T01:46:53;8.90;99.90
10986;DHT22;5546;48.714;8.738;2023-12-20T01:49:19;8.60;99.90
10986;DHT22;5546;48.714;8.738;2023-12-20T01:51:46;8.60;99.90
10986;DHT22;5546;48.714;8.738;2023-12-20T01:54:12;9.00;99.90
10986;DHT22;5546;48.714;8.738;2023-12-20T01:56:39;9.00;99.90
10986;DHT22;5546;48.714;8.738;2023-12-20T01:59:05;9.20;99.90
10986;DHT22;5546;48.714;8.738;2023-12-20T02:01:32;9.10;99.90
10986;DHT22;5546;48.714;8.738;2023-12-20T02:03:58;9.20;99.90
10986;DHT22;5546;48.714;8.738;2023-12-20T02:06:24;9.10;99.90
10986;DHT22;5546;48.714;8.738;2023-12-20T02:08:54;9.10;99.90
10986;DHT22;5546;48.714;8.738;2023-12-20T02:11:20;9.30;99.90
10986;DHT22;5546;48.714;8.738;2023-12-20T02:13:46;9.20;99.90
10986;DHT22;5546;48.714;8.738;2023-12-20T02:18:38;9.60;99.90
10986;DHT22;5546;48.714;8.738;2023-12-20T02:21:05;9.60;99.90
10986;DHT22;5546;48.714;8.738;2023-12-20T02:23:31;9.50;99.90
10986;DHT22;5546;48.714;8.738;2023-12-20T02:25:56;9.60;99.90
10986;DHT22;5546;48.714;8.738;2023-12-20T02:28:22;9.70;99.90
10986;DHT22;5546;48.714;8.738;2023-12-20T02:30:48;9.70;99.90
10986;DHT22;5546;48.714;8.738;2023-12-20T02:33:15;9.80;99.90
10986;DHT22;5546;48.714;8.738;2023-12-20T02:35:41;9.80;99.90
10986;DHT22;5546;48.714;8.738;2023-12-20T02:38:06;9.60;99.90
10986;DHT22;5546;48.714;8.738;2023-12-20T02:40:32;9.60;99.90
10986;DHT22;5546;48.714;8.738;2023-12-20T02:42:57;9.80;99.90
10986;DHT22;5546;48.714;8.738;2023-12-20T02:45:23;9.80;99.90
10986;DHT22;5546;48.714;8.738;2023-12-20T02:47:48;9.80;99.90
10986;DHT22;5546;48.714;8.738;2023-12-20T02:50:14;9.80;99.90
10986;DHT22;5546;48.714;8.738;2023-12-20T02:52:39;9.80;99.90
10986;DHT22;5546;48.714;8.738;2023-12-20T02:55:05;9.80;99.90
10986;DHT22;5546;48.714;8.738;2023-12-20T02:57:30;9.50;99.90
10986;DHT22;5546;48.714;8.738;2023-12-20T02:59:57;9.60;99.90
10986;DHT22;5546;48.714;8.738;2023-12-20T03:02:23;9.60;99.90
10986;DHT22;5546;48.714;8.738;2023-12-20T03:04:48;9.50;99.90
10986;DHT22;5546;48.714;8.738;2023-12-20T03:07:13;9.70;99.90
10986;DHT22;5546;48.714;8.738;2023-12-20T03:09:39;9.70;99.90
10986;DHT22;5546;48.714;8.738;2023-12-20T03:12:05;9.50;99.90
10986;DHT22;5546;48.714;8.738;2023-12-20T03:14:30;9.50;99.90
10986;DHT22;5546;48.714;8.738;2023-12-20T03:16:56;9.50;99.90
10986;DHT22;5546;48.714;8.738;2023-12-20T03:19:21;9.50;99.90
10986;DHT22;5546;48.714;8.738;2023-12-20T03:21:47;8.70;99.90
10986;DHT22;5546;48.714;8.738;2023-12-20T03:24:12;9.50;99.90
10986;DHT22;5546;48.714;8.738;2023-12-20T03:26:38;9.60;99.90
10986;DHT22;5546;48.714;8.738;2023-12-20T03:29:03;9.80;99.90
10986;DHT22;5546;48.714;8.738;2023-12-20T03:31:29;9.70;99.90
10986;DHT22;5546;48.714;8.738;2023-12-20T03:33:54;9.50;99.90
10986;DHT22;5546;48.714;8.738;2023-12-20T03:36:20;9.30;99.90
10986;DHT22;5546;48.714;8.738;2023-12-20T03:38:46;9.50;99.90
10986;DHT22;5546;48.714;8.738;2023-12-20T03:41:13;9.50;99.90
10986;DHT22;5546;48.714;8.738;2023-12-20T03:43:39;9.50;99.90
10986;DHT22;5546;48.714;8.738;2023-12-20T03:50:57;9.30;99.90
10986;DHT22;5546;48.714;8.738;2023-12-20T03:55:49;9.50;99.90
10986;DHT22;5546;48.714;8.738;2023-12-20T04:00:40;9.30;99.90
10986;DHT22;5546;48.714;8.738;2023-12-20T04:03:07;9.30;99.90
10986;DHT22;5546;48.714;8.738;2023-12-20T04:05:32;9.10;99.90
10986;DHT22;5546;48.714;8.738;2023-12-20T04:08:01;9.20;99.90
10986;DHT22;5546;48.714;8.738;2023-12-20T04:10:26;9.10;99.90
10986;DHT22;5546;48.714;8.738;2023-12-20T04:12:52;9.10;99.90
10986;DHT22;5546;48.714;8.738;2023-12-20T04:15:17;9.30;99.90
10986;DHT22;5546;48.714;8.738;2023-12-20T04:20:09;9.20;99.90
10986;DHT22;5546;48.714;8.738;2023-12-20T04:22:35;9.30;99.90
10986;DHT22;5546;48.714;8.738;2023-12-20T04:25:00;9.30;99.90
10986;DHT22;5546;48.714;8.738;2023-12-20T04:27:26;9.40;99.90
10986;DHT22;5546;48.714;8.738;2023-12-20T04:29:51;9.40;99.90
10986;DHT22;5546;48.714;8.738;2023-12-20T04:32:17;9.20;99.90
10986;DHT22;5546;48.714;8.738;2023-12-20T04:34:42;9.20;99.90
10986;DHT22;5546;48.714;8.738;2023-12-20T04:37:08;9.30;99.90
10986;DHT22;5546;48.714;8.738;2023-12-20T04:39:33;9.40;99.90
10986;DHT22;5546;48.714;8.738;2023-12-20T04:41:59;9.50;99.90
10986;DHT22;5546;48.714;8.738;2023-12-20T04:44:24;9.50;99.90
10986;DHT22;5546;48.714;8.738;2023-12-20T04:46:50;9.60;99.90
10986;DHT22;5546;48.714;8.738;2023-12-20T04:49:15;9.40;99.90
10986;DHT22;5546;48.714;8.738;2023-12-20T04:54:07;9.60;99.90
10986;DHT22;5546;48.714;8.738;2023-12-20T04:56:32;9.60;99.90
10986;DHT22;5546;48.714;8.738;2023-12-20T04:58:58;9.40;99.90
10986;DHT22;5546;48.714;8.738;2023-12-20T05:01:23;9.10;99.90
10986;DHT22;5546;48.714;8.738;2023-12-20T05:03:49;9.10;99.90
10986;DHT22;5546;48.714;8.738;2023-12-20T05:06:15;9.30;99.90
10986;DHT22;5546;48.714;8.738;2023-12-20T05:08:40;9.30;99.90
10986;DHT22;5546;48.714;8.738;2023-12-20T05:11:06;9.10;99.90
10986;DHT22;5546;48.714;8.738;2023-12-20T05:13:31;9.00;99.90
10986;DHT22;5546;48.714;8.738;2023-12-20T05:15:57;9.30;99.90
10986;DHT22;5546;48.714;8.738;2023-12-20T05:18:22;9.30;99.90
10986;DHT22;5546;48.714;8.738;2023-12-20T05:20:49;9.50;99.90
10986;DHT22;5546;48.714;8.738;2023-12-20T05:23:15;9.40;99.90
10986;DHT22;5546;48.714;8.738;2023-12-20T05:25:40;9.40;99.90
10986;DHT22;5546;48.714;8.738;2023-12-20T05:28:06;9.30;99.90
10986;DHT22;5546;48.714;8.738;2023-12-20T05:32:57;9.30;99.90
10986;DHT22;5546;48.714;8.738;2023-12-20T05:35:23;9.40;99.90
10986;DHT22;5546;48.714;8.738;2023-12-20T05:37:49;9.40;99.90
10986;DHT22;5546;48.714;8.738;2023-12-20T05:40:15;9.40;99.90
10986;DHT22;5546;48.714;8.738;2023-12-20T05:42:40;9.30;99.90
10986;DHT22;5546;48.714;8.738;2023-12-20T05:45:06;9.30;99.90
10986;DHT22;5546;48.714;8.738;2023-12-20T05:49:58;9.30;99.90
10986;DHT22;5546;48.714;8.738;2023-12-20T05:52:24;9.50;99.90
10986;DHT22;5546;48.714;8.738;2023-12-20T05:54:49;9.40;99.90
10986;DHT22;5546;48.714;8.738;2023-12-20T05:57:15;8.90;99.90
10986;DHT22;5546;48.714;8.738;2023-12-20T05:59:40;9.50;99.90
10986;DHT22;5546;48.714;8.738;2023-12-20T06:04:32;9.60;99.90
10986;DHT22;5546;48.714;8.738;2023-12-20T06:06:57;9.60;99.90
10986;DHT22;5546;48.714;8.738;2023-12-20T06:09:23;9.70;99.90
10986;DHT22;5546;48.714;8.738;2023-12-20T06:11:49;9.60;99.90
10986;DHT22;5546;48.714;8.738;2023-12-20T06:14:15;9.50;99.90
10986;DHT22;5546;48.714;8.738;2023-12-20T06:16:41;9.40;99.90
10986;DHT22;5546;48.714;8.738;2023-12-20T06:19:07;9.50;99.90
10986;DHT22;5546;48.714;8.738;2023-12-20T06:24:01;9.50;99.90
10986;DHT22;5546;48.714;8.738;2023-12-20T06:28:52;9.50;99.90
10986;DHT22;5546;48.714;8.738;2023-12-20T06:31:18;9.70;99.90
10986;DHT22;5546;48.714;8.738;2023-12-20T06:36:14;9.60;99.90
10986;DHT22;5546;48.714;8.738;2023-12-20T06:38:39;9.70;99.90
10986;DHT22;5546;48.714;8.738;2023-12-20T06:41:05;9.80;99.90
10986;DHT22;5546;48.714;8.738;2023-12-20T06:43:31;9.90;99.90
10986;DHT22;5546;48.714;8.738;2023-12-20T06:45:58;9.40;99.90
10986;DHT22;5546;48.714;8.738;2023-12-20T06:48:23;9.50;99.90
10986;DHT22;5546;48.714;8.738;2023-12-20T06:50:49;9.60;99.90
10986;DHT22;5546;48.714;8.738;2023-12-20T06:53:14;9.50;99.90
10986;DHT22;5546;48.714;8.738;2023-12-20T06:55:40;9.50;99.90
10986;DHT22;5546;48.714;8.738;2023-12-20T06:58:06;9.20;99.90
10986;DHT22;5546;48.714;8.738;2023-12-20T07:00:32;9.00;99.90
10986;DHT22;5546;48.714;8.738;2023-12-20T07:02:57;9.20;99.90
10986;DHT22;5546;48.714;8.738;2023-12-20T07:05:23;9.20;99.90
10986;DHT22;5546;48.714;8.738;2023-12-20T07:07:48;9.20;99.90
10986;DHT22;5546;48.714;8.738;2023-12-20T07:10:14;9.20;99.90
10986;DHT22;5546;48.714;8.738;2023-12-20T07:12:39;8.90;99.90
10986;DHT22;5546;48.714;8.738;2023-12-20T07:15:05;8.50;99.90
10986;DHT22;5546;48.714;8.738;2023-12-20T07:17:33;8.90;99.90
10986;DHT22;5546;48.714;8.738;2023-12-20T07:19:59;9.10;99.90
10986;DHT22;5546;48.714;8.738;2023-12-20T07:22:29;9.50;99.90
10986;DHT22;5546;48.714;8.738;2023-12-20T07:24:55;9.50;99.90
10986;DHT22;5546;48.714;8.738;2023-12-20T07:27:20;9.70;99.90
10986;DHT22;5546;48.714;8.738;2023-12-20T07:29:46;9.60;99.90
10986;DHT22;5546;48.714;8.738;2023-12-20T07:32:11;9.40;99.90
10986;DHT22;5546;48.714;8.738;2023-12-20T07:34:37;9.40;99.90
10986;DHT22;5546;48.714;8.738;2023-12-20T07:37:02;9.50;99.90
10986;DHT22;5546;48.714;8.738;2023-12-20T07:39:28;9.40;99.90
10986;DHT22;5546;48.714;8.738;2023-12-20T07:41:53;9.40;99.90
10986;DHT22;5546;48.714;8.738;2023-12-20T07:44:19;9.50;99.90
10986;DHT22;5546;48.714;8.738;2023-12-20T07:46:44;9.50;99.90
10986;DHT22;5546;48.714;8.738;2023-12-20T07:49:10;9.50;99.90
10986;DHT22;5546;48.714;8.738;2023-12-20T07:51:36;9.50;99.90
10986;DHT22;5546;48.714;8.738;2023-12-20T07:54:02;9.70;99.90
10986;DHT22;5546;48.714;8.738;2023-12-20T07:56:28;9.70;99.90
10986;DHT22;5546;48.714;8.738;2023-12-20T07:58:54;9.60;99.90
10986;DHT22;5546;48.714;8.738;2023-12-20T08:01:20;9.80;99.90
10986;DHT22;5546;48.714;8.738;2023-12-20T08:03:45;9.60;99.90
10986;DHT22;5546;48.714;8.738;2023-12-20T08:06:11;9.30;99.90
10986;DHT22;5546;48.714;8.738;2023-12-20T08:08:37;9.10;99.90
10986;DHT22;5546;48.714;8.738;2023-12-20T08:11:02;9.20;99.90
10986;DHT22;5546;48.714;8.738;2023-12-20T08:13:28;9.30;99.90
10986;DHT22;5546;48.714;8.738;2023-12-20T08:15:55;9.10;99.90
10986;DHT22;5546;48.714;8.738;2023-12-20T08:18:21;8.70;99.90
10986;DHT22;5546;48.714;8.738;2023-12-20T08:20:47;8.40;99.90
10986;DHT22;5546;48.714;8.738;2023-12-20T08:23:13;8.40;99.90
10986;DHT22;5546;48.714;8.738;2023-12-20T08:25:39;8.10;99.90
10986;DHT22;5546;48.714;8.738;2023-12-20T08:30:30;8.30;99.90
10986;DHT22;5546;48.714;8.738;2023-12-20T08:33:00;8.40;99.90
10986;DHT22;5546;48.714;8.738;2023-12-20T08:35:25;8.00;99.90
10986;DHT22;5546;48.714;8.738;2023-12-20T08:37:51;8.20;99.90
10986;DHT22;5546;48.714;8.738;2023-12-20T08:40:16;8.10;99.90
10986;DHT22;5546;48.714;8.738;2023-12-20T08:42:42;7.90;99.90
10986;DHT22;5546;48.714;8.738;2023-12-20T08:45:08;7.60;99.90
10986;DHT22;5546;48.714;8.738;2023-12-20T08:47:33;7.50;99.90
10986;DHT22;5546;48.714;8.738;2023-12-20T08:49:59;7.50;99.90
10986;DHT22;5546;48.714;8.738;2023-12-20T08:52:25;7.50;99.90
10986;DHT22;5546;48.714;8.738;2023-12-20T08:54:53;7.50;99.90
10986;DHT22;5546;48.714;8.738;2023-12-20T08:57:22;7.50;99.90
10986;DHT22;5546;48.714;8.738;2023-12-20T08:59:51;7.60;99.90
10986;DHT22;5546;48.714;8.738;2023-12-20T09:02:23;7.60;99.90
10986;DHT22;5546;48.714;8.738;2023-12-20T09:04:49;7.60;99.90
10986;DHT22;5546;48.714;8.738;2023-12-20T09:07:22;7.70;99.90
10986;DHT22;5546;48.714;8.738;2023-12-20T09:09:48;7.80;99.90
10986;DHT22;5546;48.714;8.738;2023-12-20T09:12:13;7.40;99.90
10986;DHT22;5546;48.714;8.738;2023-12-20T09:17:05;7.70;99.90
10986;DHT22;5546;48.714;8.738;2023-12-20T09:19:31;7.80;99.90
10986;DHT22;5546;48.714;8.738;2023-12-20T09:24:23;7.90;99.90
10986;DHT22;5546;48.714;8.738;2023-12-20T09:26:48;7.90;99.90
10986;DHT22;5546;48.714;8.738;2023-12-20T09:29:14;7.90;99.90
10986;DHT22;5546;48.714;8.738;2023-12-20T09:31:41;7.70;99.90
10986;DHT22;5546;48.714;8.738;2023-12-20T09:34:09;7.90;99.90
10986;DHT22;5546;48.714;8.738;2023-12-20T09:36:34;8.00;99.90
10986;DHT22;5546;48.714;8.738;2023-12-20T09:39:01;7.80;99.90
10986;DHT22;5546;48.714;8.738;2023-12-20T09:41:29;7.80;99.90
10986;DHT22;5546;48.714;8.738;2023-12-20T09:44:00;7.70;99.90
10986;DHT22;5546;48.714;8.738;2023-12-20T09:46:28;8.00;99.90
10986;DHT22;5546;48.714;8.738;2023-12-20T09:48:57;8.30;99.90
10986;DHT22;5546;48.714;8.738;2023-12-20T09:51:24;8.50;99.90
10986;DHT22;5546;48.714;8.738;2023-12-20T09:53:50;8.60;99.90
10986;DHT22;5546;48.714;8.738;2023-12-20T09:56:17;8.70;99.90
10986;DHT22;5546;48.714;8.738;2023-12-20T09:58:43;8.70;99.90
10986;DHT22;5546;48.714;8.738;2023-12-20T10:01:09;8.80;99.90
10986;DHT22;5546;48.714;8.738;2023-12-20T10:03:36;9.10;99.50
10986;DHT22;5546;48.714;8.738;2023-12-20T10:06:03;9.10;99.90
10986;DHT22;5546;48.714;8.738;2023-12-20T10:08:29;9.00;99.20
10986;DHT22;5546;48.714;8.738;2023-12-20T10:10:55;9.00;99.80
10986;DHT22;5546;48.714;8.738;2023-12-20T10:15:49;9.10;99.60
10986;DHT22;5546;48.714;8.738;2023-12-20T10:18:15;9.20;98.00
10986;DHT22;5546;48.714;8.738;2023-12-20T10:20:41;8.80;98.80
10986;DHT22;5546;48.714;8.738;2023-12-20T10:23:08;9.00;99.30
10986;DHT22;5546;48.714;8.738;2023-12-20T10:25:33;9.20;99.60
10986;DHT22;5546;48.714;8.738;2023-12-20T10:28:13;9.50;98.80
10986;DHT22;5546;48.714;8.738;2023-12-20T10:30:39;9.70;98.20
10986;DHT22;5546;48.714;8.738;2023-12-20T10:33:06;9.80;98.60
10986;DHT22;5546;48.714;8.738;2023-12-20T10:35:33;9.70;99.10
10986;DHT22;5546;48.714;8.738;2023-12-20T10:38:03;9.90;98.60
10986;DHT22;5546;48.714;8.738;2023-12-20T10:40:29;9.90;97.00
10986;DHT22;5546;48.714;8.738;2023-12-20T10:42:56;9.80;96.60
10986;DHT22;5546;48.714;8.738;2023-12-20T10:45:22;9.70;96.30
10986;DHT22;5546;48.714;8.738;2023-12-20T10:47:49;9.40;96.90
10986;DHT22;5546;48.714;8.738;2023-12-20T10:50:15;9.80;97.30
10986;DHT22;5546;48.714;8.738;2023-12-20T10:52:42;9.60;96.40
10986;DHT22;5546;48.714;8.738;2023-12-20T10:55:10;9.90;96.30
10986;DHT22;5546;48.714;8.738;2023-12-20T10:57:36;10.00;96.20
10986;DHT22;5546;48.714;8.738;2023-12-20T11:00:02;10.10;96.00
10986;DHT22;5546;48.714;8.738;2023-12-20T11:02:39;10.20;95.20
10986;DHT22;5546;48.714;8.738;2023-12-20T11:05:26;10.20;95.00
10986;DHT22;5546;48.714;8.738;2023-12-20T11:08:02;10.40;94.90
10986;DHT22;5546;48.714;8.738;2023-12-20T11:10:34;9.80;94.50
10986;DHT22;5546;48.714;8.738;2023-12-20T11:13:20;9.90;95.60
10986;DHT22;5546;48.714;8.738;2023-12-20T11:15:47;9.80;96.60
10986;DHT22;5546;48.714;8.738;2023-12-20T11:18:12;9.80;96.60
10986;DHT22;5546;48.714;8.738;2023-12-20T11:20:39;9.80;96.30
10986;DHT22;5546;48.714;8.738;2023-12-20T11:23:06;9.70;95.30
10986;DHT22;5546;48.714;8.738;2023-12-20T11:25:49;9.60;95.80
10986;DHT22;5546;48.714;8.738;2023-12-20T11:28:21;9.70;94.90
10986;DHT22;5546;48.714;8.738;2023-12-20T11:30:57;10.00;95.10
10986;DHT22;5546;48.714;8.738;2023-12-20T11:33:30;10.20;93.80
10986;DHT22;5546;48.714;8.738;2023-12-20T11:35:57;9.70;94.70
10986;DHT22;5546;48.714;8.738;2023-12-20T11:38:23;9.10;95.20
10986;DHT22;5546;48.714;8.738;2023-12-20T11:40:49;8.80;95.90
10986;DHT22;5546;48.714;8.738;2023-12-20T11:43:32;9.30;95.90
10986;DHT22;5546;48.714;8.738;2023-12-20T11:46:06;9.40;95.30
10986;DHT22;5546;48.714;8.738;2023-12-20T11:48:34;9.80;94.70
10986;DHT22;5546;48.714;8.738;2023-12-20T11:55:54;9.80;95.40
10986;DHT22;5546;48.714;8.738;2023-12-20T12:03:14;9.30;94.80
10986;DHT22;5546;48.714;8.738;2023-12-20T12:05:40;9.90;95.10
10986;DHT22;5546;48.714;8.738;2023-12-20T12:08:06;9.80;94.10
10986;DHT22;5546;48.714;8.738;2023-12-20T12:10:33;9.10;95.10
10986;DHT22;5546;48.714;8.738;2023-12-20T12:12:59;9.70;96.10
10986;DHT22;5546;48.714;8.738;2023-12-20T12:15:25;9.10;95.00
10986;DHT22;5546;48.714;8.738;2023-12-20T12:17:57;9.10;96.20
10986;DHT22;5546;48.714;8.738;2023-12-20T12:20:23;9.50;95.90
10986;DHT22;5546;48.714;8.738;2023-12-20T12:23:03;9.60;95.20
10986;DHT22;5546;48.714;8.738;2023-12-20T12:25:30;9.60;94.20
10986;DHT22;5546;48.714;8.738;2023-12-20T12:27:56;9.50;94.70
10986;DHT22;5546;48.714;8.738;2023-12-20T12:30:23;9.70;94.40
10986;DHT22;5546;48.714;8.738;2023-12-20T12:32:48;9.70;94.60
10986;DHT22;5546;48.714;8.738;2023-12-20T12:35:14;9.80;93.90
10986;DHT22;5546;48.714;8.738;2023-12-20T12:37:40;9.80;94.10
10986;DHT22;5546;48.714;8.738;2023-12-20T12:40:10;8.90;94.80
10986;DHT22;5546;48.714;8.738;2023-12-20T12:42:41;8.80;95.30
10986;DHT22;5546;48.714;8.738;2023-12-20T12:45:07;9.00;95.60
10986;DHT22;5546;48.714;8.738;2023-12-20T12:47:34;8.80;95.40
10986;DHT22;5546;48.714;8.738;2023-12-20T12:50:00;9.00;95.30
10986;DHT22;5546;48.714;8.738;2023-12-20T12:52:25;9.40;94.70
10986;DHT22;5546;48.714;8.738;2023-12-20T12:54:52;9.20;94.60
10986;DHT22;5546;48.714;8.738;2023-12-20T12:59:45;9.10;95.20
10986;DHT22;5546;48.714;8.738;2023-12-20T13:02:12;9.20;95.50
10986;DHT22;5546;48.714;8.738;2023-12-20T13:04:41;8.90;95.50
10986;DHT22;5546;48.714;8.738;2023-12-20T13:07:08;8.70;96.70
10986;DHT22;5546;48.714;8.738;2023-12-20T13:12:04;9.10;95.10
10986;DHT22;5546;48.714;8.738;2023-12-20T13:14:33;9.20;94.90
10986;DHT22;5546;48.714;8.738;2023-12-20T13:16:58;9.20;95.70
10986;DHT22;5546;48.714;8.738;2023-12-20T13:21:50;9.30;96.10
10986;DHT22;5546;48.714;8.738;2023-12-20T13:24:15;9.40;95.00
10986;DHT22;5546;48.714;8.738;2023-12-20T13:26:41;9.50;95.50
10986;DHT22;5546;48.714;8.738;2023-12-20T13:29:06;9.30;95.20
10986;DHT22;5546;48.714;8.738;2023-12-20T13:31:32;9.40;95.50
10986;DHT22;5546;48.714;8.738;2023-12-20T13:33:58;9.80;95.10
10986;DHT22;5546;48.714;8.738;2023-12-20T13:36:23;9.70;94.70
10986;DHT22;5546;48.714;8.738;2023-12-20T13:38:49;9.80;94.20
10986;DHT22;5546;48.714;8.738;2023-12-20T13:41:14;9.80;94.20
10986;DHT22;5546;48.714;8.738;2023-12-20T13:43:40;9.60;94.20
10986;DHT22;5546;48.714;8.738;2023-12-20T13:46:06;9.40;94.80
10986;DHT22;5546;48.714;8.738;2023-12-20T13:48:31;9.00;95.50
10986;DHT22;5546;48.714;8.738;2023-12-20T13:50:57;9.10;96.10
10986;DHT22;5546;48.714;8.738;2023-12-20T13:53:23;9.50;95.10
10986;DHT22;5546;48.714;8.738;2023-12-20T13:58:15;10.10;94.60
10986;DHT22;5546;48.714;8.738;2023-12-20T14:03:06;10.40;93.80
10986;DHT22;5546;48.714;8.738;2023-12-20T14:05:32;10.20;94.30
10986;DHT22;5546;48.714;8.738;2023-12-20T14:07:58;10.20;94.40
10986;DHT22;5546;48.714;8.738;2023-12-20T14:10:24;9.90;95.00
10986;DHT22;5546;48.714;8.738;2023-12-20T14:12:54;9.90;95.40
10986;DHT22;5546;48.714;8.738;2023-12-20T14:15:19;9.80;95.10
10986;DHT22;5546;48.714;8.738;2023-12-20T14:22:40;10.00;95.30
10986;DHT22;5546;48.714;8.738;2023-12-20T14:25:15;9.70;95.70
10986;DHT22;5546;48.714;8.738;2023-12-20T14:27:41;9.20;96.70
10986;DHT22;5546;48.714;8.738;2023-12-20T14:30:09;9.00;96.70
10986;DHT22;5546;48.714;8.738;2023-12-20T14:32:35;9.10;97.10
10986;DHT22;5546;48.714;8.738;2023-12-20T14:35:06;9.40;96.50
10986;DHT22;5546;48.714;8.738;2023-12-20T14:37:34;9.20;96.50
10986;DHT22;5546;48.714;8.738;2023-12-20T14:39:59;9.30;97.00
10986;DHT22;5546;48.714;8.738;2023-12-20T14:42:25;9.50;96.70
10986;DHT22;5546;48.714;8.738;2023-12-20T14:44:50;9.10;96.90
10986;DHT22;5546;48.714;8.738;2023-12-20T14:47:17;9.00;97.30
10986;DHT22;5546;48.714;8.738;2023-12-20T14:49:43;9.10;97.30
10986;DHT22;5546;48.714;8.738;2023-12-20T14:52:09;9.10;97.50
10986;DHT22;5546;48.714;8.738;2023-12-20T14:54:37;8.90;98.00
10986;DHT22;5546;48.714;8.738;2023-12-20T14:57:04;8.20;99.00
10986;DHT22;5546;48.714;8.738;2023-12-20T14:59:30;8.90;99.10
10986;DHT22;5546;48.714;8.738;2023-12-20T15:26:38;7.90;99.90
10986;DHT22;5546;48.714;8.738;2023-12-20T15:31:30;8.30;99.90
10986;DHT22;5546;48.714;8.738;2023-12-20T15:36:24;8.00;99.90
10986;DHT22;5546;48.714;8.738;2023-12-20T15:41:19;8.10;99.90
10986;DHT22;5546;48.714;8.738;2023-12-20T15:43:46;8.10;99.90
10986;DHT22;5546;48.714;8.738;2023-12-20T15:51:10;8.50;99.90
10986;DHT22;5546;48.714;8.738;2023-12-20T15:56:03;8.40;99.90
10986;DHT22;5546;48.714;8.738;2023-12-20T15:58:29;8.20;99.90
10986;DHT22;5546;48.714;8.738;2023-12-20T16:00:56;8.30;99.90
10986;DHT22;5546;48.714;8.738;2023-12-20T16:03:23;8.20;99.90
10986;DHT22;5546;48.714;8.738;2023-12-20T16:05:48;8.10;99.90
10986;DHT22;5546;48.714;8.738;2023-12-20T16:15:33;7.40;99.90
10986;DHT22;5546;48.714;8.738;2023-12-20T16:17:58;7.50;99.90
10986;DHT22;5546;48.714;8.738;2023-12-20T16:25:16;7.30;99.90
10986;DHT22;5546;48.714;8.738;2023-12-20T16:32:34;7.70;99.90
10986;DHT22;5546;48.714;8.738;2023-12-20T16:35:00;7.40;99.90
10986;DHT22;5546;48.714;8.738;2023-12-20T16:37:27;7.50;99.90
10986;DHT22;5546;48.714;8.738;2023-12-20T16:39:52;7.20;99.90
10986;DHT22;5546;48.714;8.738;2023-12-20T16:42:18;7.10;99.90
10986;DHT22;5546;48.714;8.738;2023-12-20T16:44:44;7.10;99.90
10986;DHT22;5546;48.714;8.738;2023-12-20T16:47:10;7.40;99.90
10986;DHT22;5546;48.714;8.738;2023-12-20T16:49:36;7.50;99.90
10986;DHT22;5546;48.714;8.738;2023-12-20T16:52:02;7.60;99.90
10986;DHT22;5546;48.714;8.738;2023-12-20T16:54:27;7.60;99.90
10986;DHT22;5546;48.714;8.738;2023-12-20T16:56:55;7.60;99.90
10986;DHT22;5546;48.714;8.738;2023-12-20T16:59:21;7.60;99.90
10986;DHT22;5546;48.714;8.738;2023-12-20T17:01:46;7.50;99.90
10986;DHT22;5546;48.714;8.738;2023-12-20T17:04:12;7.50;99.90
10986;DHT22;5546;48.714;8.738;2023-12-20T17:09:04;7.20;99.90
10986;DHT22;5546;48.714;8.738;2023-12-20T17:11:29;7.30;99.90
10986;DHT22;5546;48.714;8.738;2023-12-20T17:16:23;7.60;99.90
10986;DHT22;5546;48.714;8.738;2023-12-20T17:18:48;7.80;99.90
10986;DHT22;5546;48.714;8.738;2023-12-20T17:21:15;7.50;99.90
10986;DHT22;5546;48.714;8.738;2023-12-20T17:23:41;7.40;99.90
10986;DHT22;5546;48.714;8.738;2023-12-20T17:26:07;7.50;99.90
10986;DHT22;5546;48.714;8.738;2023-12-20T17:28:32;7.50;99.90
10986;DHT22;5546;48.714;8.738;2023-12-20T17:35:51;7.40;99.90
10986;DHT22;5546;48.714;8.738;2023-12-20T17:38:16;7.30;99.90
10986;DHT22;5546;48.714;8.738;2023-12-20T17:48:03;7.10;99.90
10986;DHT22;5546;48.714;8.738;2023-12-20T17:55:27;6.30;99.90
10986;DHT22;5546;48.714;8.738;2023-12-20T18:00:22;7.20;99.90
10986;DHT22;5546;48.714;8.738;2023-12-20T18:02:50;7.20;99.90
10986;DHT22;5546;48.714;8.738;2023-12-20T18:05:22;7.20;99.90
10986;DHT22;5546;48.714;8.738;2023-12-20T18:07:49;6.70;99.90
10986;DHT22;5546;48.714;8.738;2023-12-20T18:12:41;7.00;99.90
10986;DHT22;5546;48.714;8.738;2023-12-20T18:15:07;7.10;99.90
10986;DHT22;5546;48.714;8.738;2023-12-20T18:19:59;7.80;99.90
10986;DHT22;5546;48.714;8.738;2023-12-20T18:29:43;8.00;99.90
10986;DHT22;5546;48.714;8.738;2023-12-20T18:32:09;8.00;99.90
10986;DHT22;5546;48.714;8.738;2023-12-20T18:34:36;8.00;99.90
10986;DHT22;5546;48.714;8.738;2023-12-20T18:37:02;7.60;99.90
10986;DHT22;5546;48.714;8.738;2023-12-20T18:39:32;7.40;99.90
10986;DHT22;5546;48.714;8.738;2023-12-20T18:46:50;8.10;99.90
10986;DHT22;5546;48.714;8.738;2023-12-20T18:49:16;8.20;99.90
10986;DHT22;5546;48.714;8.738;2023-12-20T18:51:43;8.40;99.90
10986;DHT22;5546;48.714;8.738;2023-12-20T18:54:08;8.10;99.90
10986;DHT22;5546;48.714;8.738;2023-12-20T18:56:35;7.80;99.90
10986;DHT22;5546;48.714;8.738;2023-12-20T18:59:03;7.80;99.90